sensor_id;sensor_type;location;lat;lon;timestamp;pressure;altitude;pressure_sealevel;temperature;humidity
40650;BME280;26342;42.826;23.992;2023-01-28T00:01:53;94748.84;;;0.15;100.00
40650;BME280;26342;42.826;23.992;2023-01-28T00:04:18;94751.44;;;0.22;100.00
40650;BME280;26342;42.826;23.992;2023-01-28T00:06:44;94755.28;;;0.26;100.00
40650;BME280;26342;42.826;23.992;2023-01-28T00:09:09;94759.88;;;0.31;100.00
40650;BME280;26342;42.826;23.992;2023-01-28T00:11:34;94762.34;;;0.32;100.00
40650;BME280;26342;42.826;23.992;2023-01-28T00:13:59;94763.28;;;0.38;100.00
40650;BME280;26342;42.826;23.992;2023-01-28T00:16:25;94764.09;;;0.38;100.00
40650;BME280;26342;42.826;23.992;2023-01-28T00:18:51;94764.91;;;0.39;100.00
40650;BME280;26342;42.826;23.992;2023-01-28T00:21:16;94766.72;;;0.38;100.00
40650;BME280;26342;42.826;23.992;2023-01-28T00:23:42;94760.69;;;0.38;100.00
40650;BME280;26342;42.826;23.992;2023-01-28T00:26:12;94761.69;;;0.37;100.00
40650;BME280;26342;42.826;23.992;2023-01-28T00:28:38;94774.03;;;0.30;100.00
40650;BME280;26342;42.826;23.992;2023-01-28T00:31:07;94765.34;;;0.29;100.00
40650;BME280;26342;42.826;23.992;2023-01-28T00:33:33;94770.78;;;0.34;100.00
40650;BME280;26342;42.826;23.992;2023-01-28T00:35:59;94773.66;;;0.26;100.00
40650;BME280;26342;42.826;23.992;2023-01-28T00:38:24;94773.09;;;0.11;100.00
40650;BME280;26342;42.826;23.992;2023-01-28T00:40:50;94771.84;;;0.20;100.00
40650;BME280;26342;42.826;23.992;2023-01-28T00:43:15;94769.84;;;0.15;100.00
40650;BME280;26342;42.826;23.992;2023-01-28T00:45:40;94775.06;;;0.15;100.00
40650;BME280;26342;42.826;23.992;2023-01-28T00:48:06;94775.28;;;0.14;100.00
40650;BME280;26342;42.826;23.992;2023-01-28T00:50:31;94776.50;;;0.18;100.00
40650;BME280;26342;42.826;23.992;2023-01-28T00:52:56;94783.56;;;0.17;100.00
40650;BME280;26342;42.826;23.992;2023-01-28T00:55:21;94775.06;;;0.15;100.00
40650;BME280;26342;42.826;23.992;2023-01-28T00:57:47;94772.66;;;0.14;100.00
40650;BME280;26342;42.826;23.992;2023-01-28T01:00:12;94782.16;;;0.15;100.00
40650;BME280;26342;42.826;23.992;2023-01-28T01:02:38;94780.53;;;0.20;100.00
40650;BME280;26342;42.826;23.992;2023-01-28T01:05:03;94783.72;;;0.29;100.00
40650;BME280;26342;42.826;23.992;2023-01-28T01:07:29;94782.13;;;0.28;100.00
40650;BME280;26342;42.826;23.992;2023-01-28T01:10:21;94789.56;;;0.31;100.00
40650;BME280;26342;42.826;23.992;2023-01-28T01:12:47;94789.00;;;0.22;100.00
40650;BME280;26342;42.826;23.992;2023-01-28T01:15:12;94780.53;;;0.20;100.00
40650;BME280;26342;42.826;23.992;2023-01-28T01:17:38;94784.97;;;0.20;100.00
40650;BME280;26342;42.826;23.992;2023-01-28T01:20:04;94785.56;;;0.15;100.00
40650;BME280;26342;42.826;23.992;2023-01-28T01:22:33;94784.75;;;0.21;100.00
40650;BME280;26342;42.826;23.992;2023-01-28T01:24:59;94778.31;;;0.17;100.00
40650;BME280;26342;42.826;23.992;2023-01-28T01:27:24;94781.91;;;0.23;100.00
40650;BME280;26342;42.826;23.992;2023-01-28T01:29:49;94786.19;;;0.24;100.00
40650;BME280;26342;42.826;23.992;2023-01-28T01:32:15;94788.59;;;0.19;100.00
40650;BME280;26342;42.826;23.992;2023-01-28T01:34:40;94786.78;;;0.19;100.00
40650;BME280;26342;42.826;23.992;2023-01-28T01:37:06;94788.19;;;0.22;100.00
40650;BME280;26342;42.826;23.992;2023-01-28T01:39:32;94795.25;;;0.21;100.00
40650;BME280;26342;42.826;23.992;2023-01-28T01:41:58;94793.66;;;0.20;100.00
40650;BME280;26342;42.826;23.992;2023-01-28T01:47:07;94794.88;;;0.11;100.00
40650;BME280;26342;42.826;23.992;2023-01-28T01:49:32;94797.72;;;0.10;100.00
40650;BME280;26342;42.826;23.992;2023-01-28T01:52:08;94803.34;;;0.13;100.00
40650;BME280;26342;42.826;23.992;2023-01-28T01:54:34;94806.78;;;0.14;100.00
40650;BME280;26342;42.826;23.992;2023-01-28T01:57:02;94805.16;;;0.19;100.00
40650;BME280;26342;42.826;23.992;2023-01-28T01:59:29;94803.94;;;0.22;100.00
40650;BME280;26342;42.826;23.992;2023-01-28T02:01:57;94797.06;;;0.21;100.00
40650;BME280;26342;42.826;23.992;2023-01-28T02:04:28;94801.94;;;0.24;100.00
40650;BME280;26342;42.826;23.992;2023-01-28T02:06:54;94805.16;;;0.26;100.00
40650;BME280;26342;42.826;23.992;2023-01-28T02:09:29;94808.56;;;0.26;100.00
40650;BME280;26342;42.826;23.992;2023-01-28T02:11:58;94805.16;;;0.26;100.00
40650;BME280;26342;42.826;23.992;2023-01-28T02:14:26;94807.75;;;0.26;100.00
40650;BME280;26342;42.826;23.992;2023-01-28T02:16:52;94808.56;;;0.26;100.00
40650;BME280;26342;42.826;23.992;2023-01-28T02:19:17;94815.44;;;0.27;100.00
40650;BME280;26342;42.826;23.992;2023-01-28T02:24:28;94809.56;;;0.32;100.00
40650;BME280;26342;42.826;23.992;2023-01-28T02:32:02;94812.81;;;0.21;100.00
40650;BME280;26342;42.826;23.992;2023-01-28T02:37:14;94820.28;;;0.24;100.00
40650;BME280;26342;42.826;23.992;2023-01-28T02:39:44;94811.78;;;0.28;100.00
40650;BME280;26342;42.826;23.992;2023-01-28T02:42:14;94813.22;;;0.24;100.00
40650;BME280;26342;42.826;23.992;2023-01-28T02:44:41;94814.84;;;0.19;100.00
40650;BME280;26342;42.826;23.992;2023-01-28T02:47:10;94816.25;;;0.21;100.00
40650;BME280;26342;42.826;23.992;2023-01-28T02:49:55;94820.47;;;0.22;100.00
40650;BME280;26342;42.826;23.992;2023-01-28T02:55:29;94822.13;;;0.10;100.00
40650;BME280;26342;42.826;23.992;2023-01-28T02:58:01;94825.16;;;0.07;100.00
40650;BME280;26342;42.826;23.992;2023-01-28T03:00:38;94823.16;;;0.09;100.00
40650;BME280;26342;42.826;23.992;2023-01-28T03:05:58;94820.13;;;-0.01;100.00
40650;BME280;26342;42.826;23.992;2023-01-28T03:08:38;94829.00;;;-0.02;100.00
40650;BME280;26342;42.826;23.992;2023-01-28T03:11:22;94820.75;;;0.01;100.00
40650;BME280;26342;42.826;23.992;2023-01-28T03:14:06;94825.78;;;0.03;100.00
40650;BME280;26342;42.826;23.992;2023-01-28T03:16:51;94813.25;;;0.05;100.00
40650;BME280;26342;42.826;23.992;2023-01-28T03:19:35;94811.44;;;-0.02;100.00
40650;BME280;26342;42.826;23.992;2023-01-28T03:22:19;94818.72;;;-0.04;100.00
40650;BME280;26342;42.826;23.992;2023-01-28T03:25:04;94821.94;;;-0.08;100.00
40650;BME280;26342;42.826;23.992;2023-01-28T03:28:08;94816.69;;;0.05;100.00
40650;BME280;26342;42.826;23.992;2023-01-28T03:33:43;94822.94;;;0.04;100.00
40650;BME280;26342;42.826;23.992;2023-01-28T03:36:27;94814.88;;;0.06;100.00
40650;BME280;26342;42.826;23.992;2023-01-28T03:39:12;94826.97;;;0.07;100.00
40650;BME280;26342;42.826;23.992;2023-01-28T03:41:37;94825.16;;;0.07;100.00
40650;BME280;26342;42.826;23.992;2023-01-28T03:44:02;94822.94;;;0.04;100.00
40650;BME280;26342;42.826;23.992;2023-01-28T03:46:46;94823.75;;;0.05;100.00
40650;BME280;26342;42.826;23.992;2023-01-28T03:49:12;94819.53;;;0.04;100.00
40650;BME280;26342;42.826;23.992;2023-01-28T03:51:38;94825.16;;;0.07;100.00
40650;BME280;26342;42.826;23.992;2023-01-28T03:54:04;94829.00;;;0.11;100.00
40650;BME280;26342;42.826;23.992;2023-01-28T03:56:30;94832.81;;;0.15;100.00
40650;BME280;26342;42.826;23.992;2023-01-28T03:59:05;94835.84;;;0.12;100.00
40650;BME280;26342;42.826;23.992;2023-01-28T04:01:30;94827.97;;;0.19;100.00
40650;BME280;26342;42.826;23.992;2023-01-28T04:03:56;94837.22;;;0.21;100.00
40650;BME280;26342;42.826;23.992;2023-01-28T04:06:21;94838.25;;;0.20;100.00
40650;BME280;26342;42.826;23.992;2023-01-28T04:08:46;94839.06;;;0.14;100.00
40650;BME280;26342;42.826;23.992;2023-01-28T04:11:17;94837.47;;;0.07;100.00
40650;BME280;26342;42.826;23.992;2023-01-28T04:13:44;94838.25;;;0.07;100.00
40650;BME280;26342;42.826;23.992;2023-01-28T04:16:10;94842.91;;;0.05;100.00
40650;BME280;26342;42.826;23.992;2023-01-28T04:18:36;94847.94;;;0.13;100.00
40650;BME280;26342;42.826;23.992;2023-01-28T04:21:01;94844.09;;;0.16;100.00
40650;BME280;26342;42.826;23.992;2023-01-28T04:23:26;94849.56;;;0.14;100.00
40650;BME280;26342;42.826;23.992;2023-01-28T04:25:53;94851.19;;;0.09;100.00
40650;BME280;26342;42.826;23.992;2023-01-28T04:28:19;94853.41;;;0.05;100.00
40650;BME280;26342;42.826;23.992;2023-01-28T04:30:44;94853.41;;;0.05;100.00
40650;BME280;26342;42.826;23.992;2023-01-28T04:33:09;94857.84;;;0.05;100.00
40650;BME280;26342;42.826;23.992;2023-01-28T04:35:35;94864.13;;;0.10;100.00
40650;BME280;26342;42.826;23.992;2023-01-28T04:38:00;94863.91;;;0.05;100.00
40650;BME280;26342;42.826;23.992;2023-01-28T04:40:25;94869.16;;;0.05;100.00
40650;BME280;26342;42.826;23.992;2023-01-28T04:42:54;94864.91;;;-0.03;100.00
40650;BME280;26342;42.826;23.992;2023-01-28T04:45:20;94868.34;;;-0.02;100.00
40650;BME280;26342;42.826;23.992;2023-01-28T04:47:45;94865.34;;;-0.06;100.00
40650;BME280;26342;42.826;23.992;2023-01-28T04:50:10;94874.00;;;-0.05;100.00
40650;BME280;26342;42.826;23.992;2023-01-28T04:52:35;94873.22;;;-0.06;100.00
40650;BME280;26342;42.826;23.992;2023-01-28T04:55:01;94880.06;;;-0.05;100.00
40650;BME280;26342;42.826;23.992;2023-01-28T04:57:27;94882.69;;;-0.05;100.00
40650;BME280;26342;42.826;23.992;2023-01-28T04:59:52;94878.44;;;-0.06;100.00
40650;BME280;26342;42.826;23.992;2023-01-28T05:02:17;94879.47;;;0.00;100.00
40650;BME280;26342;42.826;23.992;2023-01-28T05:04:43;94885.31;;;0.02;100.00
40650;BME280;26342;42.826;23.992;2023-01-28T05:07:08;94889.34;;;0.05;100.00
40650;BME280;26342;42.826;23.992;2023-01-28T05:09:33;94887.94;;;0.09;100.00
40650;BME280;26342;42.826;23.992;2023-01-28T05:11:58;94891.16;;;0.04;100.00
40650;BME280;26342;42.826;23.992;2023-01-28T05:14:24;94897.00;;;0.06;100.00
40650;BME280;26342;42.826;23.992;2023-01-28T05:16:49;94901.44;;;0.06;100.00
40650;BME280;26342;42.826;23.992;2023-01-28T05:19:14;94898.22;;;0.04;100.00
40650;BME280;26342;42.826;23.992;2023-01-28T05:21:40;94905.28;;;-0.04;100.00
40650;BME280;26342;42.826;23.992;2023-01-28T05:24:05;94900.03;;;-0.04;100.00
40650;BME280;26342;42.826;23.992;2023-01-28T05:26:30;94905.69;;;0.00;100.00
40650;BME280;26342;42.826;23.992;2023-01-28T05:28:56;94907.47;;;-0.01;100.00
40650;BME280;26342;42.826;23.992;2023-01-28T05:31:21;94915.97;;;-0.05;100.00
40650;BME280;26342;42.826;23.992;2023-01-28T05:33:46;94910.94;;;-0.07;100.00
40650;BME280;26342;42.826;23.992;2023-01-28T05:36:12;94917.00;;;-0.06;100.00
40650;BME280;26342;42.826;23.992;2023-01-28T05:38:37;94915.78;;;-0.04;100.00
40650;BME280;26342;42.826;23.992;2023-01-28T05:41:02;94917.81;;;0.01;100.00
40650;BME280;26342;42.826;23.992;2023-01-28T05:43:27;94925.47;;;-0.04;100.00
40650;BME280;26342;42.826;23.992;2023-01-28T05:45:53;94922.41;;;-0.01;100.00
40650;BME280;26342;42.826;23.992;2023-01-28T05:48:18;94923.84;;;0.02;100.00
40650;BME280;26342;42.826;23.992;2023-01-28T05:50:45;94915.19;;;0.01;100.00
40650;BME280;26342;42.826;23.992;2023-01-28T05:53:10;94929.31;;;0.00;100.00
40650;BME280;26342;42.826;23.992;2023-01-28T05:55:36;94929.47;;;-0.02;100.00
40650;BME280;26342;42.826;23.992;2023-01-28T05:58:01;94931.09;;;-0.01;100.00
40650;BME280;26342;42.826;23.992;2023-01-28T06:00:26;94934.34;;;0.02;100.00
40650;BME280;26342;42.826;23.992;2023-01-28T06:02:51;94936.34;;;-0.01;100.00
40650;BME280;26342;42.826;23.992;2023-01-28T06:05:17;94935.94;;;-0.04;100.00
40650;BME280;26342;42.826;23.992;2023-01-28T06:07:45;94949.06;;;0.03;100.00
40650;BME280;26342;42.826;23.992;2023-01-28T06:10:11;94952.50;;;0.03;100.00
40650;BME280;26342;42.826;23.992;2023-01-28T06:12:36;94954.13;;;0.11;100.00
40650;BME280;26342;42.826;23.992;2023-01-28T06:15:02;94949.88;;;0.10;100.00
40650;BME280;26342;42.826;23.992;2023-01-28T06:17:27;94957.53;;;0.18;100.00
40650;BME280;26342;42.826;23.992;2023-01-28T06:19:53;94958.75;;;0.22;100.00
40650;BME280;26342;42.826;23.992;2023-01-28T06:22:18;94965.81;;;0.15;100.00
40650;BME280;26342;42.826;23.992;2023-01-28T06:24:43;94963.97;;;0.15;100.00
40650;BME280;26342;42.826;23.992;2023-01-28T06:27:08;94963.00;;;0.16;100.00
40650;BME280;26342;42.826;23.992;2023-01-28T06:29:34;94959.97;;;0.19;100.00
40650;BME280;26342;42.826;23.992;2023-01-28T06:31:59;94973.06;;;0.13;100.00
40650;BME280;26342;42.826;23.992;2023-01-28T06:34:24;94971.84;;;0.15;100.00
40650;BME280;26342;42.826;23.992;2023-01-28T06:36:50;94981.38;;;0.10;100.00
40650;BME280;26342;42.826;23.992;2023-01-28T06:39:17;94973.50;;;0.10;100.00
40650;BME280;26342;42.826;23.992;2023-01-28T06:41:42;94980.13;;;0.06;100.00
40650;BME280;26342;42.826;23.992;2023-01-28T06:44:07;94985.19;;;0.07;100.00
40650;BME280;26342;42.826;23.992;2023-01-28T06:46:33;94985.78;;;0.16;100.00
40650;BME280;26342;42.826;23.992;2023-01-28T06:48:58;94988.81;;;0.13;100.00
40650;BME280;26342;42.826;23.992;2023-01-28T06:51:23;94991.44;;;0.13;100.00
40650;BME280;26342;42.826;23.992;2023-01-28T06:53:48;94993.66;;;0.16;100.00
40650;BME280;26342;42.826;23.992;2023-01-28T06:56:14;95001.72;;;0.14;100.00
40650;BME280;26342;42.826;23.992;2023-01-28T06:58:39;94996.09;;;0.17;100.00
40650;BME280;26342;42.826;23.992;2023-01-28T07:01:04;95003.53;;;0.14;100.00
40650;BME280;26342;42.826;23.992;2023-01-28T07:03:29;95010.41;;;0.15;100.00
40650;BME280;26342;42.826;23.992;2023-01-28T07:05:55;95005.97;;;0.15;100.00
40650;BME280;26342;42.826;23.992;2023-01-28T07:08:20;95011.41;;;0.14;100.00
40650;BME280;26342;42.826;23.992;2023-01-28T07:10:45;95010.03;;;0.18;100.00
40650;BME280;26342;42.826;23.992;2023-01-28T07:13:10;95015.88;;;0.20;100.00
40650;BME280;26342;42.826;23.992;2023-01-28T07:15:36;95013.84;;;0.22;100.00
40650;BME280;26342;42.826;23.992;2023-01-28T07:18:01;95022.75;;;0.27;100.00
40650;BME280;26342;42.826;23.992;2023-01-28T07:20:26;95016.69;;;0.27;100.00
40650;BME280;26342;42.826;23.992;2023-01-28T07:22:52;95019.31;;;0.27;100.00
40650;BME280;26342;42.826;23.992;2023-01-28T07:25:17;95023.75;;;0.26;100.00
40650;BME280;26342;42.826;23.992;2023-01-28T07:27:46;95022.34;;;0.24;100.00
40650;BME280;26342;42.826;23.992;2023-01-28T07:30:12;95032.22;;;0.28;100.00
40650;BME280;26342;42.826;23.992;2023-01-28T07:32:37;95029.59;;;0.28;100.00
40650;BME280;26342;42.826;23.992;2023-01-28T07:35:03;95038.50;;;0.27;100.00
40650;BME280;26342;42.826;23.992;2023-01-28T07:37:28;95035.66;;;0.29;100.00
40650;BME280;26342;42.826;23.992;2023-01-28T07:39:53;95033.03;;;0.36;100.00
40650;BME280;26342;42.826;23.992;2023-01-28T07:42:19;95034.25;;;0.33;100.00
40650;BME280;26342;42.826;23.992;2023-01-28T07:44:44;95034.84;;;0.35;100.00
40650;BME280;26342;42.826;23.992;2023-01-28T07:47:09;95040.69;;;0.37;100.00
40650;BME280;26342;42.826;23.992;2023-01-28T07:49:34;95040.50;;;0.45;100.00
40650;BME280;26342;42.826;23.992;2023-01-28T07:52:00;95040.28;;;0.47;100.00
40650;BME280;26342;42.826;23.992;2023-01-28T07:54:25;95047.78;;;0.43;100.00
40650;BME280;26342;42.826;23.992;2023-01-28T07:56:50;95040.50;;;0.45;100.00
40650;BME280;26342;42.826;23.992;2023-01-28T07:59:16;95044.75;;;0.46;100.00
40650;BME280;26342;42.826;23.992;2023-01-28T08:01:41;95041.09;;;0.54;100.00
40650;BME280;26342;42.826;23.992;2023-01-28T08:04:06;95044.16;;;0.51;100.00
40650;BME280;26342;42.826;23.992;2023-01-28T08:06:31;95042.72;;;0.55;100.00
40650;BME280;26342;42.826;23.992;2023-01-28T08:09:02;95054.66;;;0.51;100.00
40650;BME280;26342;42.826;23.992;2023-01-28T08:11:29;95050.00;;;0.53;100.00
40650;BME280;26342;42.826;23.992;2023-01-28T08:13:54;95047.59;;;0.58;100.00
40650;BME280;26342;42.826;23.992;2023-01-28T08:16:19;95052.03;;;0.58;100.00
40650;BME280;26342;42.826;23.992;2023-01-28T08:18:45;95053.81;;;0.70;100.00
40650;BME280;26342;42.826;23.992;2023-01-28T08:21:10;95058.25;;;0.63;100.00
40650;BME280;26342;42.826;23.992;2023-01-28T08:23:35;95063.94;;;0.60;100.00
40650;BME280;26342;42.826;23.992;2023-01-28T08:26:00;95065.97;;;0.58;100.00
40650;BME280;26342;42.826;23.992;2023-01-28T08:28:26;95070.41;;;0.64;100.00
40650;BME280;26342;42.826;23.992;2023-01-28T08:30:51;95072.63;;;0.67;100.00
40650;BME280;26342;42.826;23.992;2023-01-28T08:33:17;95072.41;;;0.69;100.00
40650;BME280;26342;42.826;23.992;2023-01-28T08:35:42;95069.56;;;0.70;100.00
40650;BME280;26342;42.826;23.992;2023-01-28T08:38:09;95071.81;;;0.73;100.00
40650;BME280;26342;42.826;23.992;2023-01-28T08:40:34;95070.81;;;0.74;100.00
40650;BME280;26342;42.826;23.992;2023-01-28T08:43:00;95074.84;;;0.83;100.00
40650;BME280;26342;42.826;23.992;2023-01-28T08:45:26;95070.38;;;0.84;100.00
40650;BME280;26342;42.826;23.992;2023-01-28T08:47:52;95076.66;;;0.90;100.00
40650;BME280;26342;42.826;23.992;2023-01-28T08:50:18;95085.72;;;0.94;100.00
40650;BME280;26342;42.826;23.992;2023-01-28T08:52:44;95077.47;;;0.83;100.00
40650;BME280;26342;42.826;23.992;2023-01-28T08:55:10;95069.59;;;0.83;100.00
40650;BME280;26342;42.826;23.992;2023-01-28T08:57:36;95077.84;;;0.94;100.00
40650;BME280;26342;42.826;23.992;2023-01-28T09:00:01;95078.06;;;0.99;100.00
40650;BME280;26342;42.826;23.992;2023-01-28T09:02:27;95074.81;;;1.03;100.00
40650;BME280;26342;42.826;23.992;2023-01-28T09:04:52;95078.66;;;1.07;100.00
40650;BME280;26342;42.826;23.992;2023-01-28T09:07:17;95075.00;;;1.08;100.00
40650;BME280;26342;42.826;23.992;2023-01-28T09:09:43;95080.88;;;1.04;100.00
40650;BME280;26342;42.826;23.992;2023-01-28T09:12:08;95076.44;;;1.11;100.00
40650;BME280;26342;42.826;23.992;2023-01-28T09:14:35;95079.66;;;1.20;100.00
40650;BME280;26342;42.826;23.992;2023-01-28T09:17:00;95075.56;;;1.24;100.00
40650;BME280;26342;42.826;23.992;2023-01-28T09:19:25;95079.22;;;1.29;100.00
40650;BME280;26342;42.826;23.992;2023-01-28T09:21:51;95075.56;;;1.30;100.00
40650;BME280;26342;42.826;23.992;2023-01-28T09:24:16;95080.22;;;1.35;100.00
40650;BME280;26342;42.826;23.992;2023-01-28T09:26:42;95084.69;;;1.34;100.00
40650;BME280;26342;42.826;23.992;2023-01-28T09:29:08;95081.84;;;1.36;100.00
40650;BME280;26342;42.826;23.992;2023-01-28T09:31:33;95079.59;;;1.33;100.00
40650;BME280;26342;42.826;23.992;2023-01-28T09:33:59;95076.38;;;1.31;100.00
40650;BME280;26342;42.826;23.992;2023-01-28T09:36:24;95073.94;;;1.36;100.00
40650;BME280;26342;42.826;23.992;2023-01-28T09:38:49;95081.41;;;1.32;100.00
40650;BME280;26342;42.826;23.992;2023-01-28T09:41:22;95080.63;;;1.32;100.00
40650;BME280;26342;42.826;23.992;2023-01-28T09:43:53;95076.34;;;1.37;100.00
40650;BME280;26342;42.826;23.992;2023-01-28T09:46:23;95080.19;;;1.42;100.00
40650;BME280;26342;42.826;23.992;2023-01-28T09:48:53;95079.59;;;1.39;100.00
40650;BME280;26342;42.826;23.992;2023-01-28T09:51:30;95078.41;;;1.35;100.00
40650;BME280;26342;42.826;23.992;2023-01-28T09:53:58;95074.31;;;1.39;100.00
40650;BME280;26342;42.826;23.992;2023-01-28T09:56:25;95077.75;;;1.40;100.00
40650;BME280;26342;42.826;23.992;2023-01-28T09:58:54;95084.63;;;1.41;100.00
40650;BME280;26342;42.826;23.992;2023-01-28T10:06:27;95077.38;;;1.43;100.00
40650;BME280;26342;42.826;23.992;2023-01-28T10:14:00;95075.91;;;1.47;100.00
40650;BME280;26342;42.826;23.992;2023-01-28T10:19:17;95070.69;;;1.40;100.00
40650;BME280;26342;42.826;23.992;2023-01-28T10:27:18;95079.81;;;1.31;100.00
40650;BME280;26342;42.826;23.992;2023-01-28T10:29:43;95086.50;;;1.27;100.00
40650;BME280;26342;42.826;23.992;2023-01-28T10:34:42;95086.06;;;1.37;100.00
40650;BME280;26342;42.826;23.992;2023-01-28T10:37:08;95084.47;;;1.36;100.00
40650;BME280;26342;42.826;23.992;2023-01-28T10:39:36;95082.06;;;1.28;100.00
40650;BME280;26342;42.826;23.992;2023-01-28T10:42:07;95085.50;;;1.15;100.00
40650;BME280;26342;42.826;23.992;2023-01-28T10:44:36;95082.28;;;1.13;100.00
40650;BME280;26342;42.826;23.992;2023-01-28T10:47:03;95084.28;;;1.18;100.00
40650;BME280;26342;42.826;23.992;2023-01-28T10:49:40;95075.19;;;1.20;100.00
40650;BME280;26342;42.826;23.992;2023-01-28T10:52:12;95083.66;;;1.29;100.00
40650;BME280;26342;42.826;23.992;2023-01-28T10:54:38;95078.19;;;1.30;100.00
40650;BME280;26342;42.826;23.992;2023-01-28T10:57:04;95078.34;;;1.42;100.00
40650;BME280;26342;42.826;23.992;2023-01-28T10:59:34;95081.78;;;1.49;100.00
40650;BME280;26342;42.826;23.992;2023-01-28T11:04:59;95087.22;;;1.61;100.00
40650;BME280;26342;42.826;23.992;2023-01-28T11:07:25;95086.19;;;1.68;100.00
40650;BME280;26342;42.826;23.992;2023-01-28T11:09:50;95082.09;;;1.73;100.00
40650;BME280;26342;42.826;23.992;2023-01-28T11:12:20;95081.06;;;1.74;100.00
40650;BME280;26342;42.826;23.992;2023-01-28T11:14:51;95082.28;;;1.78;100.00
40650;BME280;26342;42.826;23.992;2023-01-28T11:17:17;95089.59;;;1.76;100.00
40650;BME280;26342;42.826;23.992;2023-01-28T11:19:43;95088.75;;;1.82;100.00
40650;BME280;26342;42.826;23.992;2023-01-28T11:22:42;95083.06;;;1.85;100.00
40650;BME280;26342;42.826;23.992;2023-01-28T11:25:00;95087.53;;;1.84;100.00
40650;BME280;26342;42.826;23.992;2023-01-28T11:27:28;95085.69;;;1.85;100.00
40650;BME280;26342;42.826;23.992;2023-01-28T11:29:55;95084.44;;;1.94;100.00
40650;BME280;26342;42.826;23.992;2023-01-28T11:32:23;95077.78;;;1.91;100.00
40650;BME280;26342;42.826;23.992;2023-01-28T11:34:50;95081.59;;;1.95;100.00
40650;BME280;26342;42.826;23.992;2023-01-28T11:37:16;95079.97;;;1.94;100.00
40650;BME280;26342;42.826;23.992;2023-01-28T11:39:45;95074.50;;;1.96;100.00
40650;BME280;26342;42.826;23.992;2023-01-28T11:42:17;95073.06;;;2.00;100.00
40650;BME280;26342;42.826;23.992;2023-01-28T11:44:43;95078.69;;;2.10;100.00
40650;BME280;26342;42.826;23.992;2023-01-28T11:49:50;95084.00;;;1.97;100.00
40650;BME280;26342;42.826;23.992;2023-01-28T11:58:20;95080.38;;;1.98;100.00
40650;BME280;26342;42.826;23.992;2023-01-28T12:08:33;95076.31;;;1.95;100.00
40650;BME280;26342;42.826;23.992;2023-01-28T12:18:36;95077.50;;;2.06;100.00
40650;BME280;26342;42.826;23.992;2023-01-28T12:21:08;95081.09;;;2.12;100.00
40650;BME280;26342;42.826;23.992;2023-01-28T12:26:12;95085.75;;;2.16;100.00
40650;BME280;26342;42.826;23.992;2023-01-28T12:34:03;95086.75;;;2.15;100.00
40650;BME280;26342;42.826;23.992;2023-01-28T12:39:15;95090.56;;;2.19;100.00
40650;BME280;26342;42.826;23.992;2023-01-28T12:41:48;95083.66;;;2.25;100.00
40650;BME280;26342;42.826;23.992;2023-01-28T12:44:19;95084.66;;;2.31;100.00
40650;BME280;26342;42.826;23.992;2023-01-28T12:46:50;95085.19;;;2.39;100.00
40650;BME280;26342;42.826;23.992;2023-01-28T12:51:53;95090.84;;;2.43;100.00
40650;BME280;26342;42.826;23.992;2023-01-28T12:56:54;95092.84;;;2.47;100.00
40650;BME280;26342;42.826;23.992;2023-01-28T13:02:08;95102.63;;;2.40;100.00
40650;BME280;26342;42.826;23.992;2023-01-28T13:04:46;95092.69;;;2.36;100.00
40650;BME280;26342;42.826;23.992;2023-01-28T13:07:19;95099.97;;;2.40;100.00
40650;BME280;26342;42.826;23.992;2023-01-28T13:12:40;95107.91;;;2.34;100.00
40650;BME280;26342;42.826;23.992;2023-01-28T13:15:10;95110.22;;;2.23;100.00
40650;BME280;26342;42.826;23.992;2023-01-28T13:17:36;95109.19;;;2.24;100.00
40650;BME280;26342;42.826;23.992;2023-01-28T13:20:12;95112.00;;;2.30;100.00
40650;BME280;26342;42.826;23.992;2023-01-28T13:22:38;95114.44;;;2.24;100.00
40650;BME280;26342;42.826;23.992;2023-01-28T13:27:38;95120.31;;;2.27;100.00
40650;BME280;26342;42.826;23.992;2023-01-28T13:30:46;95119.72;;;2.24;100.00
40650;BME280;26342;42.826;23.992;2023-01-28T13:32:56;95119.75;;;2.18;100.00
40650;BME280;26342;42.826;23.992;2023-01-28T13:37:56;95122.38;;;2.18;100.00
40650;BME280;26342;42.826;23.992;2023-01-28T13:40:25;95124.59;;;2.21;100.00
40650;BME280;26342;42.826;23.992;2023-01-28T13:43:25;95130.53;;;2.10;100.00
40650;BME280;26342;42.826;23.992;2023-01-28T13:45:42;95131.31;;;2.10;100.00
40650;BME280;26342;42.826;23.992;2023-01-28T13:48:28;95133.34;;;2.15;100.00
40650;BME280;26342;42.826;23.992;2023-01-28T13:50:55;95137.81;;;2.14;100.00
40650;BME280;26342;42.826;23.992;2023-01-28T13:55:58;95137.81;;;2.14;100.00
40650;BME280;26342;42.826;23.992;2023-01-28T13:58:42;95139.00;;;2.12;100.00
40650;BME280;26342;42.826;23.992;2023-01-28T14:16:57;95148.81;;;1.91;100.00
40650;BME280;26342;42.826;23.992;2023-01-28T14:19:27;95156.09;;;1.89;100.00
40650;BME280;26342;42.826;23.992;2023-01-28T14:21:53;95157.31;;;1.87;100.00
40650;BME280;26342;42.826;23.992;2023-01-28T14:24:19;95155.94;;;1.84;100.00
40650;BME280;26342;42.826;23.992;2023-01-28T14:29:35;95163.03;;;1.77;100.00
40650;BME280;26342;42.826;23.992;2023-01-28T14:32:03;95165.66;;;1.77;100.00
40650;BME280;26342;42.826;23.992;2023-01-28T14:34:35;95168.91;;;1.73;100.00
40650;BME280;26342;42.826;23.992;2023-01-28T14:37:05;95166.69;;;1.70;100.00
40650;BME280;26342;42.826;23.992;2023-01-28T14:39:32;95173.19;;;1.67;100.00
40650;BME280;26342;42.826;23.992;2023-01-28T14:42:03;95170.13;;;1.70;100.00
40650;BME280;26342;42.826;23.992;2023-01-28T14:44:31;95168.53;;;1.62;100.00
40650;BME280;26342;42.826;23.992;2023-01-28T14:49:32;95176.84;;;1.53;100.00
40650;BME280;26342;42.826;23.992;2023-01-28T14:57:33;95188.59;;;1.50;100.00
40650;BME280;26342;42.826;23.992;2023-01-28T15:00:01;95196.88;;;1.47;100.00